New Hartford, IA (50660)

2:46 AM CST on December 20, 2014 (GMT -0600)
Laurel Circle | Change Station
CLOSE
Current Station
Personal Weather Station
Location: Cedar Falls, IA
Elevation: 942 ft
Nearby Weather Stations

Elev 942 ft 42.52 °N, 92.46 °W | Updated 6 seconds ago

Overcast
Overcast
29.1 °F
Feels Like 29 °F
N
0.0
Wind Variable Wind from ESE
Gusts 0.0 mph

Today
High -- | Low -- °F
--% Chance of Precip.
Yesterday
High -- | Low -- °F
Precip. -- in
7:36 AM 4:39 PM
Waning Crescent, 4% visible
Pressure 30.24 in
Visibility 9.0 miles
Clouds Overcast 1200 ft
Windchill 29 °F
Dew Point 23 °F
Humidity 77%
Rainfall 0.00 in
Snow Depth Not available.
UV 0 out of 12
Pollen .10 out of 12
Air Quality Not available.
Flu Activity Not available.
METAR KALO 200754Z 16006KT 9SM OVC012 M02/M04 A3020 RMK AO2 SLP239 T10171044

More Conditions Fewer Conditions

Pressure 30.24 in
Visibility 9.0 miles
Clouds Overcast 1200 ft
Windchill 29 °F
Dew Point 23 °F
Humidity 77%
Rainfall 0.00 in
Snow Depth Not available.
UV 0 out of 12
Pollen .10 out of 12
Air Quality Not available.
Flu Activity Not available.
METAR KALO 200754Z 16006KT 9SM OVC012 M02/M04 A3020 RMK AO2 SLP239 T10171044

More Conditions Fewer Conditions

10-Day Weather Forecast

Almanac

Astronomy

Dec. 20, 2014 Rise Set
Actual Time
Civil Twilight
Nautical Twilight
Astronomical Twilight
Moon
Length of Visible Light
Length of Day
Tomorrow will be .
, % of the Moon is Illuminated

Today's Extremes

State Highs State Lows

Community

WunderPhotos

Upload Photos

1,779,146 photos uploaded!

WunderBlogs® & News

Nearby

Air Quality

  Air Quality AQ Index Pollutant
Not available.

Snow Depth

Station Depth Elevation

Earthquake Activity

City Distance Mag. Time & Date
Minimum magnitude displayed is 2.5.

Coastal Water Temperatures

Place Temperature

Nearby Weather Stations